Waynesburg, Kentucky
Current Conditions -  °F | °C
As of 7:15 AM on Sunday 23 Nov 2014 (Local Time) from KDVK Reporting Station
Broken Clouds Broken Clouds  
Wind Chill: 41°   Ceiling: 11000
Heat Index: 45°   Visibility: 10mi
Dew Point: 36°   Wind: 6mph
Humidity: 71%   Direction: 160°SSE
Pressure: 30.01"   Gusts: NA
Location:  37.33°N, 84.67°W
Report Text: KDVK 231215Z AUTO 16005KT 10SM SCT050 BKN110 07/02 A3001 RMK AO2
Loading
Personal Weather Stations






























Interactive Weather Map New forecast layout! Learn more

10-Day Weather Forecast

Advertisements
Track Severe Weather on mobile